Time;durP1;ratioP1;P1;durP2;ratioP2;P2;SDS_P1;SDS_P2;PMS_P1;PMS_P2;Temp;Humidity;BMP_temperature;BMP_pressure;BME280_temperature;BME280_humidity;BME280_pressure;Samples;Min_cycle;Max_cycle;Signal;HPM_P1;HPM_P2
2021/07/11 00:00:16;;;;;;;9.52;4.63;;;17.40;99.90;;;;;;5001739;28;20022;-88
2021/07/11 00:02:42;;;;;;;10.48;4.10;;;17.30;99.90;;;;;;5007049;28;20072;-88
2021/07/11 00:05:10;;;;;;;9.90;4.70;;;16.90;99.90;;;;;;5023363;28;20025;-88
2021/07/11 00:07:36;;;;;;;16.17;5.68;;;17.20;99.90;;;;;;5012714;28;20026;-88
2021/07/11 00:10:04;;;;;;;11.15;5.80;;;17.10;99.90;;;;;;5019477;28;20132;-88
2021/07/11 00:12:29;;;;;;;9.95;5.57;;;17.20;99.90;;;;;;5012987;28;20113;-88
2021/07/11 00:14:55;;;;;;;11.68;5.13;;;17.30;99.90;;;;;;5000802;28;20099;-89
2021/07/11 00:17:22;;;;;;;8.48;4.82;;;19.00;99.90;;;;;;5006338;28;20034;-88
2021/07/11 00:19:48;;;;;;;9.32;4.78;;;17.10;99.90;;;;;;5020464;28;20033;-88
2021/07/11 00:22:13;;;;;;;10.43;4.68;;;17.30;99.90;;;;;;4999721;28;20026;-88
2021/07/11 00:24:40;;;;;;;8.73;5.00;;;15.90;99.90;;;;;;5001310;28;20026;-88
2021/07/11 00:27:07;;;;;;;8.77;4.75;;;20.30;99.90;;;;;;5002413;28;20033;-88
2021/07/11 00:29:34;;;;;;;9.63;4.88;;;17.10;99.90;;;;;;5014324;28;20124;-88
2021/07/11 00:32:00;;;;;;;10.63;4.70;;;17.10;99.90;;;;;;5038772;28;20033;-88
2021/07/11 00:34:26;;;;;;;9.85;4.32;;;17.10;99.90;;;;;;5021042;28;20387;-88
2021/07/11 00:36:52;;;;;;;9.18;4.47;;;17.10;99.90;;;;;;5017369;28;20021;-88
2021/07/11 00:39:17;;;;;;;6.45;3.90;;;18.90;99.90;;;;;;5010955;28;20057;-88
2021/07/11 00:41:43;;;;;;;9.75;4.57;;;17.20;99.90;;;;;;5037116;28;20075;-88
2021/07/11 00:44:10;;;;;;;8.18;4.63;;;17.20;99.90;;;;;;5037044;28;20029;-88
2021/07/11 00:46:36;;;;;;;9.73;4.45;;;17.10;99.90;;;;;;5018543;28;20017;-88
2021/07/11 00:49:06;;;;;;;10.15;5.15;;;17.10;99.90;;;;;;5026144;28;20025;-88
2021/07/11 00:51:35;;;;;;;8.43;4.28;;;17.40;99.90;;;;;;5036655;28;20071;-88
2021/07/11 00:54:01;;;;;;;7.20;3.85;;;17.20;99.90;;;;;;5036292;28;20175;-88
2021/07/11 00:56:27;;;;;;;7.80;3.90;;;17.50;99.90;;;;;;5017180;28;20025;-88
2021/07/11 00:58:54;;;;;;;9.13;4.53;;;16.50;99.90;;;;;;5030257;28;20485;-88
2021/07/11 01:01:30;;;;;;;11.52;4.90;;;20.30;99.90;;;;;;4998907;28;20026;-88
2021/07/11 01:04:01;;;;;;;9.02;4.63;;;17.00;99.90;;;;;;5018009;28;20033;-88
2021/07/11 01:06:29;;;;;;;9.45;4.30;;;17.20;99.90;;;;;;5017468;28;20033;-88
2021/07/11 01:09:05;;;;;;;8.07;3.70;;;17.30;99.90;;;;;;5015845;28;20083;-88
2021/07/11 01:11:37;;;;;;;7.47;4.50;;;16.40;99.90;;;;;;5023547;28;20075;-88
2021/07/11 01:14:04;;;;;;;8.70;4.60;;;17.90;99.90;;;;;;4998826;28;20025;-88
2021/07/11 01:16:31;;;;;;;8.45;4.50;;;20.30;99.90;;;;;;5008736;28;20053;-88
2021/07/11 01:19:08;;;;;;;9.25;4.28;;;17.40;99.90;;;;;;4998207;28;20088;-88
2021/07/11 01:21:43;;;;;;;9.93;3.95;;;18.70;99.90;;;;;;4999306;28;20382;-88
2021/07/11 01:24:19;;;;;;;8.40;4.15;;;19.20;99.90;;;;;;5016078;28;20615;-88
2021/07/11 01:26:46;;;;;;;6.47;3.85;;;17.10;99.90;;;;;;5000638;28;20129;-88
2021/07/11 01:29:16;;;;;;;6.38;3.60;;;16.60;99.90;;;;;;5035811;28;20037;-88
2021/07/11 01:31:43;;;;;;;8.00;3.80;;;17.30;99.90;;;;;;5005657;28;20033;-88
2021/07/11 01:34:09;;;;;;;7.40;3.67;;;19.60;99.90;;;;;;4999566;28;20022;-88
2021/07/11 01:36:35;;;;;;;6.22;3.50;;;20.60;99.90;;;;;;5016777;28;20033;-88
2021/07/11 01:39:02;;;;;;;7.18;3.88;;;17.60;99.90;;;;;;5022016;28;20584;-88
2021/07/11 01:41:28;;;;;;;6.72;3.22;;;14.70;99.90;;;;;;5007337;28;20375;-88
2021/07/11 01:43:56;;;;;;;7.07;3.70;;;20.30;99.90;;;;;;5017297;28;20537;-88
2021/07/11 01:46:25;;;;;;;7.05;3.85;;;19.90;99.90;;;;;;5017680;28;20033;-88
2021/07/11 01:48:52;;;;;;;7.65;3.60;;;18.90;99.90;;;;;;5017179;28;20384;-88
2021/07/11 01:51:18;;;;;;;7.32;3.90;;;20.50;99.90;;;;;;5009217;28;20018;-88
2021/07/11 01:53:47;;;;;;;6.93;3.35;;;17.60;99.90;;;;;;4998309;28;20116;-88
2021/07/11 01:56:14;;;;;;;8.30;3.65;;;17.10;99.90;;;;;;4997545;28;20097;-88
2021/07/11 01:58:41;;;;;;;6.57;3.60;;;17.30;99.90;;;;;;5014373;28;20136;-88
2021/07/11 02:01:11;;;;;;;6.43;3.75;;;17.10;99.90;;;;;;5010742;28;20021;-88
2021/07/11 02:03:38;;;;;;;10.27;4.18;;;19.70;99.90;;;;;;5019525;28;20037;-87
2021/07/11 02:06:06;;;;;;;6.97;3.17;;;17.20;99.90;;;;;;5000959;28;20387;-86
2021/07/11 02:08:38;;;;;;;9.27;4.57;;;20.50;99.90;;;;;;5014629;28;20020;-86
2021/07/11 02:11:07;;;;;;;7.55;4.38;;;17.40;99.90;;;;;;5030339;28;20108;-86
2021/07/11 02:13:51;;;;;;;7.55;3.65;;;20.00;99.90;;;;;;4998805;28;20025;-86
2021/07/11 02:16:40;;;;;;;10.60;3.90;;;19.50;99.90;;;;;;5017656;28;20090;-87
2021/07/11 02:19:07;;;;;;;7.07;3.53;;;16.30;99.90;;;;;;4980033;28;20041;-87
2021/07/11 02:21:37;;;;;;;8.75;4.28;;;20.30;99.90;;;;;;5016315;28;20029;-87
2021/07/11 02:24:04;;;;;;;8.75;4.07;;;17.20;99.90;;;;;;5018964;28;20068;-87
2021/07/11 02:26:30;;;;;;;7.47;4.00;;;17.30;99.90;;;;;;5013414;28;20528;-87
2021/07/11 02:28:59;;;;;;;7.80;3.78;;;17.00;99.90;;;;;;5035317;28;20025;-86
2021/07/11 02:31:27;;;;;;;7.63;3.75;;;17.70;99.90;;;;;;5009836;28;20024;-86
2021/07/11 02:33:53;;;;;;;8.73;4.10;;;19.90;99.90;;;;;;5002772;28;20036;-86
2021/07/11 02:36:23;;;;;;;7.50;3.83;;;17.60;99.90;;;;;;5031364;28;20029;-87
2021/07/11 02:38:55;;;;;;;7.38;4.07;;;17.30;99.90;;;;;;5038462;28;20030;-87
2021/07/11 02:41:27;;;;;;;10.32;3.92;;;17.30;99.90;;;;;;5032968;28;20033;-87
2021/07/11 02:43:56;;;;;;;6.93;4.10;;;17.20;99.90;;;;;;4999875;28;20060;-87
2021/07/11 02:46:27;;;;;;;11.75;4.18;;;20.70;99.90;;;;;;5013773;28;20053;-86
2021/07/11 02:48:53;;;;;;;8.90;3.20;;;17.20;99.90;;;;;;5019013;28;20064;-86
2021/07/11 02:51:24;;;;;;;5.55;3.30;;;17.10;99.90;;;;;;5028711;28;20025;-87
2021/07/11 02:53:54;;;;;;;6.57;3.63;;;17.20;99.90;;;;;;5017288;28;20382;-87
2021/07/11 02:56:21;;;;;;;7.78;4.60;;;18.30;99.90;;;;;;5000817;28;20057;-87
2021/07/11 02:58:53;;;;;;;9.57;4.35;;;17.50;99.90;;;;;;4998585;28;20029;-87
2021/07/11 03:01:19;;;;;;;8.00;4.32;;;19.80;99.90;;;;;;4998608;28;20490;-87
2021/07/11 03:03:47;;;;;;;12.05;5.43;;;17.20;99.90;;;;;;4998694;28;20108;-86
2021/07/11 03:06:13;;;;;;;9.13;4.00;;;19.00;99.90;;;;;;5008629;28;20025;-87
2021/07/11 03:08:39;;;;;;;10.20;4.07;;;17.20;99.90;;;;;;5018594;28;20268;-86
2021/07/11 03:11:05;;;;;;;7.85;4.38;;;17.10;99.90;;;;;;5019040;28;20018;-86
2021/07/11 03:13:34;;;;;;;8.77;4.60;;;18.00;99.90;;;;;;5019570;28;20025;-86
2021/07/11 03:16:00;;;;;;;10.38;5.22;;;17.20;99.90;;;;;;5007488;28;20029;-86
2021/07/11 03:18:30;;;;;;;10.85;5.40;;;17.20;99.90;;;;;;4999646;28;20394;-87
2021/07/11 03:20:55;;;;;;;11.82;5.03;;;17.20;99.90;;;;;;5015578;28;20061;-86
2021/07/11 03:23:22;;;;;;;10.30;5.10;;;17.10;99.90;;;;;;5017615;28;20025;-87
2021/07/11 03:25:50;;;;;;;11.35;4.80;;;17.10;99.90;;;;;;5014330;28;20033;-86
2021/07/11 03:28:17;;;;;;;7.50;3.73;;;17.10;99.90;;;;;;5017723;28;20013;-87
2021/07/11 03:30:46;;;;;;;8.70;4.53;;;17.10;99.90;;;;;;5035554;28;20117;-86
2021/07/11 03:33:13;;;;;;;;;;;17.10;99.90;;;;;;5036050;28;20026;-86
2021/07/11 03:36:06;;;;;;;8.73;4.30;;;17.10;99.90;;;;;;5027836;28;19910;-87
2021/07/11 03:38:41;;;;;;;10.60;4.72;;;16.30;99.90;;;;;;5020553;28;20418;-87
2021/07/11 03:41:10;;;;;;;11.00;4.22;;;17.10;99.90;;;;;;5034312;28;20525;-86
2021/07/11 03:43:39;;;;;;;10.73;4.93;;;17.10;99.90;;;;;;5001158;28;20030;-86
2021/07/11 03:46:08;;;;;;;8.52;4.47;;;17.00;99.90;;;;;;5029243;28;20049;-87
2021/07/11 03:48:47;;;;;;;10.45;4.75;;;17.10;99.90;;;;;;5018570;28;20018;-86
2021/07/11 03:51:14;;;;;;;7.22;3.85;;;17.00;99.90;;;;;;5001551;28;20033;-86
2021/07/11 03:53:42;;;;;;;8.77;4.60;;;20.20;99.90;;;;;;5018787;28;20033;-87
2021/07/11 03:56:09;;;;;;;8.93;4.30;;;14.50;99.90;;;;;;5007677;28;20026;-86
2021/07/11 03:58:40;;;;;;;8.60;4.65;;;18.70;99.90;;;;;;5001273;28;20076;-86
2021/07/11 04:01:10;;;;;;;10.18;3.67;;;19.50;99.90;;;;;;5018881;28;20026;-87
2021/07/11 04:03:41;;;;;;;9.52;4.22;;;18.80;99.90;;;;;;5001388;28;20522;-87
2021/07/11 04:06:15;;;;;;;7.78;4.18;;;18.00;99.90;;;;;;5025626;28;20026;-86
2021/07/11 04:08:44;;;;;;;8.43;3.83;;;18.30;99.90;;;;;;5025698;28;20048;-87
2021/07/11 04:11:10;;;;;;;7.18;3.72;;;16.20;99.90;;;;;;5038214;28;20471;-87
2021/07/11 04:13:36;;;;;;;6.63;3.92;;;17.30;99.90;;;;;;5020486;28;20022;-86
2021/07/11 04:16:08;;;;;;;9.50;4.57;;;19.00;99.90;;;;;;5015649;28;20482;-87
2021/07/11 04:18:43;;;;;;;8.82;3.85;;;17.20;99.90;;;;;;5020288;28;20033;-87
2021/07/11 04:21:11;;;;;;;8.98;4.22;;;18.10;99.90;;;;;;5020891;28;20486;-86
2021/07/11 04:23:37;;;;;;;9.07;4.00;;;17.10;99.90;;;;;;5028657;28;20038;-88
2021/07/11 04:26:04;;;;;;;9.43;4.78;;;17.20;99.90;;;;;;5019307;28;20021;-86
2021/07/11 04:28:32;;;;;;;8.90;4.60;;;19.40;99.90;;;;;;5037624;28;20029;-87
2021/07/11 04:31:00;;;;;;;8.68;4.75;;;17.60;99.90;;;;;;5020456;28;20037;-87
2021/07/11 04:33:27;;;;;;;10.18;4.75;;;19.60;99.90;;;;;;5029676;28;20036;-86
2021/07/11 04:35:53;;;;;;;7.07;4.03;;;17.50;99.90;;;;;;5024124;28;20018;-86
2021/07/11 04:38:20;;;;;;;8.63;4.53;;;20.20;99.90;;;;;;5019784;28;20394;-86
2021/07/11 04:40:48;;;;;;;7.77;3.63;;;17.60;99.90;;;;;;5038061;28;20552;-86
2021/07/11 04:43:16;;;;;;;7.60;3.88;;;19.30;99.90;;;;;;5018515;28;20034;-87
2021/07/11 04:45:42;;;;;;;7.93;4.27;;;19.00;99.90;;;;;;5003821;28;20095;-87
2021/07/11 04:48:08;;;;;;;8.77;3.75;;;17.20;99.90;;;;;;5020200;28;20025;-86
2021/07/11 04:50:33;;;;;;;9.73;4.38;;;19.10;99.90;;;;;;5040091;28;20041;-86
2021/07/11 04:52:59;;;;;;;7.85;4.20;;;17.50;99.90;;;;;;5023212;28;20022;-87
2021/07/11 04:55:25;;;;;;;7.40;4.32;;;17.70;99.90;;;;;;5006523;28;20029;-87
2021/07/11 04:57:51;;;;;;;9.73;4.65;;;17.70;99.90;;;;;;5040069;28;20025;-87
2021/07/11 05:00:17;;;;;;;7.68;4.13;;;17.00;99.90;;;;;;5022362;28;20045;-87
2021/07/11 05:02:43;;;;;;;10.70;5.05;;;17.30;99.90;;;;;;5007253;28;20037;-87
2021/07/11 05:05:09;;;;;;;8.57;3.88;;;17.30;99.90;;;;;;5011061;28;20056;-86
2021/07/11 05:07:36;;;;;;;7.22;4.05;;;17.30;99.90;;;;;;4999965;28;20022;-87
2021/07/11 05:10:04;;;;;;;6.47;4.10;;;17.30;99.90;;;;;;4999938;28;20026;-87
2021/07/11 05:12:30;;;;;;;8.98;4.65;;;17.30;99.90;;;;;;4999687;28;20018;-87
2021/07/11 05:14:55;;;;;;;9.65;4.70;;;17.40;99.90;;;;;;5025218;28;20136;-87
2021/07/11 05:17:23;;;;;;;8.93;4.85;;;17.40;99.90;;;;;;4999736;28;20053;-87
2021/07/11 05:19:49;;;;;;;7.85;4.38;;;17.40;99.90;;;;;;5017248;28;20084;-86
2021/07/11 05:22:15;;;;;;;7.50;4.45;;;20.00;99.90;;;;;;4998961;28;20025;-87
2021/07/11 05:24:41;;;;;;;9.07;3.80;;;18.40;99.90;;;;;;5006840;28;20033;-87
2021/07/11 05:27:06;;;;;;;8.15;4.30;;;17.50;99.90;;;;;;5018770;28;20026;-86
2021/07/11 05:29:32;;;;;;;8.60;4.75;;;20.30;99.90;;;;;;5019425;28;20032;-87
2021/07/11 05:31:58;;;;;;;8.30;3.97;;;17.60;99.90;;;;;;5019149;28;20026;-87
2021/07/11 05:34:24;;;;;;;12.32;4.57;;;17.70;99.90;;;;;;5032006;28;20479;-86
2021/07/11 05:36:49;;;;;;;9.00;4.85;;;17.70;99.90;;;;;;5031678;28;20435;-87
2021/07/11 05:39:16;;;;;;;14.48;5.35;;;17.80;99.90;;;;;;5019816;28;20028;-87
2021/07/11 05:41:41;;;;;;;7.55;4.50;;;17.90;99.90;;;;;;5036717;28;20025;-87
2021/07/11 05:44:07;;;;;;;7.53;4.30;;;17.80;99.90;;;;;;5036795;28;20040;-87
2021/07/11 05:46:35;;;;;;;6.25;3.90;;;17.80;99.90;;;;;;5023694;28;20108;-87
2021/07/11 05:49:01;;;;;;;7.65;3.95;;;17.90;99.90;;;;;;4999328;28;20034;-87
2021/07/11 05:51:27;;;;;;;10.57;4.53;;;17.90;99.90;;;;;;5010295;28;20390;-87
2021/07/11 05:53:53;;;;;;;6.47;3.58;;;19.40;99.90;;;;;;5019545;28;20386;-87
2021/07/11 05:56:18;;;;;;;9.18;4.25;;;18.00;99.90;;;;;;5019328;28;20034;-87
2021/07/11 05:58:44;;;;;;;8.73;4.65;;;20.00;99.90;;;;;;5000786;28;20037;-87
2021/07/11 06:01:10;;;;;;;9.52;4.07;;;19.90;99.90;;;;;;5000650;28;20033;-87
2021/07/11 06:03:35;;;;;;;5.97;3.67;;;20.20;99.90;;;;;;5000383;28;20042;-87
2021/07/11 06:06:02;;;;;;;8.75;4.60;;;19.40;99.90;;;;;;5007869;28;20025;-86
2021/07/11 06:08:27;;;;;;;10.02;5.40;;;19.50;99.90;;;;;;4999863;28;20116;-87
2021/07/11 06:10:56;;;;;;;8.13;3.80;;;18.00;99.90;;;;;;4999348;28;20041;-86
2021/07/11 06:13:24;;;;;;;9.38;4.28;;;18.90;99.90;;;;;;5016842;28;20056;-87
2021/07/11 06:15:51;;;;;;;8.43;4.47;;;20.20;99.90;;;;;;5007376;28;20040;-87
2021/07/11 06:18:16;;;;;;;9.73;4.10;;;18.70;99.90;;;;;;4998824;28;20053;-87
2021/07/11 06:20:42;;;;;;;7.25;4.40;;;17.80;99.90;;;;;;5021568;28;20032;-86
2021/07/11 06:23:11;;;;;;;9.38;5.13;;;19.10;99.90;;;;;;5018170;28;20068;-86
2021/07/11 06:25:41;;;;;;;8.38;4.75;;;20.00;99.90;;;;;;5015819;28;20033;-87
2021/07/11 06:28:06;;;;;;;7.72;4.97;;;21.90;99.90;;;;;;5016839;28;20033;-87
2021/07/11 06:30:32;;;;;;;8.32;4.60;;;19.80;99.90;;;;;;5005094;28;20030;-87
2021/07/11 06:32:58;;;;;;;10.18;5.07;;;21.10;99.90;;;;;;5017782;28;20018;-87
2021/07/11 06:35:24;;;;;;;13.30;5.50;;;19.10;99.90;;;;;;5001574;28;20022;-86
2021/07/11 06:37:51;;;;;;;9.50;5.07;;;18.60;99.90;;;;;;5007113;28;20044;-87
2021/07/11 06:40:20;;;;;;;9.88;5.10;;;19.20;99.90;;;;;;5022481;28;20097;-87
2021/07/11 06:42:45;;;;;;;;;;;21.50;99.90;;;;;;5023959;28;20022;-87
2021/07/11 06:45:12;;;;;;;8.63;4.35;;;19.00;99.90;;;;;;5040681;28;19912;-87
2021/07/11 06:47:39;;;;;;;9.30;5.03;;;20.20;99.90;;;;;;5019766;28;20013;-87
2021/07/11 06:50:10;;;;;;;10.13;5.47;;;21.10;99.90;;;;;;5032408;28;20025;-87
2021/07/11 06:52:37;;;;;;;9.00;4.72;;;18.80;99.90;;;;;;5022334;28;20072;-87
2021/07/11 06:55:08;;;;;;;10.00;4.80;;;20.20;99.90;;;;;;5022192;28;20026;-87
2021/07/11 06:57:34;;;;;;;10.05;5.60;;;18.90;99.90;;;;;;5038737;28;20087;-87
2021/07/11 07:00:05;;;;;;;7.80;4.30;;;21.80;99.90;;;;;;5038820;28;20033;-87
2021/07/11 07:02:31;;;;;;;8.80;4.68;;;19.70;99.90;;;;;;5038718;28;20049;-87
2021/07/11 07:04:57;;;;;;;9.60;4.82;;;19.50;99.90;;;;;;5019929;28;20021;-87
2021/07/11 07:07:22;;;;;;;9.63;4.95;;;21.10;99.90;;;;;;5021287;28;20030;-87
2021/07/11 07:09:48;;;;;;;9.65;4.78;;;19.50;99.90;;;;;;5004347;28;20476;-87
2021/07/11 07:12:14;;;;;;;10.18;5.50;;;18.80;99.90;;;;;;5022368;28;20036;-88
2021/07/11 07:14:39;;;;;;;9.15;5.13;;;18.90;99.90;;;;;;5004294;28;20558;-87
2021/07/11 07:17:05;;;;;;;9.23;4.32;;;20.10;99.90;;;;;;5018242;28;20029;-87
2021/07/11 07:19:31;;;;;;;11.80;5.55;;;22.10;99.90;;;;;;5003686;28;20053;-87
2021/07/11 07:21:57;;;;;;;11.40;5.18;;;18.80;99.90;;;;;;5021916;28;20065;-87
2021/07/11 07:24:22;;;;;;;11.38;5.60;;;21.10;99.90;;;;;;5005179;28;20037;-87
2021/07/11 07:26:48;;;;;;;10.20;5.25;;;18.80;99.90;;;;;;5016167;28;20064;-87
2021/07/11 07:29:14;;;;;;;10.48;6.07;;;18.80;99.90;;;;;;5041825;28;20025;-87
2021/07/11 07:31:39;;;;;;;10.20;5.38;;;21.00;99.90;;;;;;5039564;28;20056;-87
2021/07/11 07:34:06;;;;;;;13.07;6.22;;;19.40;99.90;;;;;;5006872;28;20022;-87
2021/07/11 07:36:34;;;;;;;11.07;6.25;;;18.80;99.90;;;;;;5023100;28;20009;-87
2021/07/11 07:39:00;;;;;;;;;;;20.60;99.90;;;;;;5027723;28;20120;-87
2021/07/11 07:41:26;;;;;;;10.07;5.82;;;18.90;99.90;;;;;;5044110;28;19928;-87
2021/07/11 07:43:56;;;;;;;13.65;6.80;;;21.30;99.90;;;;;;5027506;28;20017;-87
2021/07/11 07:46:22;;;;;;;15.70;8.13;;;19.20;99.90;;;;;;5018340;28;20038;-87
2021/07/11 07:48:48;;;;;;;17.83;8.43;;;21.80;99.90;;;;;;5014616;28;20057;-87
2021/07/11 07:51:13;;;;;;;17.40;7.78;;;19.10;99.90;;;;;;5013590;28;20435;-87
2021/07/11 07:53:39;;;;;;;17.90;8.55;;;19.60;99.90;;;;;;5023537;28;20045;-86
2021/07/11 07:56:05;;;;;;;19.35;8.68;;;18.80;99.90;;;;;;5016674;28;20034;-87
2021/07/11 07:58:31;;;;;;;16.98;8.52;;;18.90;99.90;;;;;;5011460;28;20429;-86
2021/07/11 08:00:56;;;;;;;15.90;8.45;;;18.90;99.90;;;;;;5013375;28;20030;-86
2021/07/11 08:03:22;;;;;;;19.77;7.95;;;22.00;99.90;;;;;;5021374;28;20057;-86
2021/07/11 08:05:48;;;;;;;20.15;8.38;;;19.00;99.90;;;;;;5007703;28;20032;-87
2021/07/11 08:08:14;;;;;;;18.10;8.98;;;19.50;99.90;;;;;;5039806;28;20052;-86
2021/07/11 08:10:40;;;;;;;17.15;8.23;;;18.80;99.90;;;;;;5022611;28;20022;-86
2021/07/11 08:13:05;;;;;;;16.48;8.27;;;19.10;99.90;;;;;;5040011;28;20071;-86
2021/07/11 08:15:32;;;;;;;18.42;9.60;;;19.40;99.90;;;;;;5019221;28;20209;-86
2021/07/11 08:17:58;;;;;;;15.57;7.30;;;19.00;99.90;;;;;;5001637;28;20026;-86
2021/07/11 08:20:24;;;;;;;16.08;7.35;;;19.70;99.90;;;;;;5019403;28;20025;-86
2021/07/11 08:22:50;;;;;;;18.15;8.48;;;22.30;99.90;;;;;;5013251;28;20033;-86
2021/07/11 08:25:17;;;;;;;18.65;8.10;;;20.90;99.90;;;;;;5020882;28;20037;-87
2021/07/11 08:27:47;;;;;;;17.83;8.52;;;19.30;99.90;;;;;;5001777;28;20022;-86
2021/07/11 08:30:14;;;;;;;18.55;8.77;;;19.40;99.90;;;;;;5020440;28;20037;-87
2021/07/11 08:32:40;;;;;;;18.67;9.57;;;19.50;99.90;;;;;;5020246;28;20046;-86
2021/07/11 08:35:07;;;;;;;19.75;8.65;;;20.70;99.90;;;;;;5001995;28;20018;-86
2021/07/11 08:37:39;;;;;;;17.02;7.90;;;19.80;99.90;;;;;;5018895;28;20454;-87
2021/07/11 08:40:08;;;;;;;16.60;7.95;;;19.10;99.90;;;;;;5038926;28;20075;-87
2021/07/11 08:42:35;;;;;;;15.55;8.05;;;19.80;99.90;;;;;;5002971;28;20088;-87
2021/07/11 08:45:01;;;;;;;17.48;8.57;;;20.40;99.90;;;;;;5018073;28;20029;-87
2021/07/11 08:47:27;;;;;;;15.45;7.53;;;20.60;99.90;;;;;;5034283;28;20022;-90
2021/07/11 08:49:53;;;;;;;18.00;8.88;;;20.70;99.90;;;;;;5035342;28;20024;-90
2021/07/11 08:52:19;;;;;;;16.88;8.02;;;23.40;99.90;;;;;;4999662;28;20025;-89
2021/07/11 08:54:44;;;;;;;21.27;10.50;;;21.00;99.90;;;;;;4999137;28;20030;-90
2021/07/11 08:57:11;;;;;;;22.88;12.77;;;21.20;99.90;;;;;;5000618;28;20030;-89
2021/07/11 08:59:38;;;;;;;25.98;13.30;;;21.40;99.90;;;;;;4999347;28;20036;-89
2021/07/11 09:02:08;;;;;;;28.52;14.00;;;20.80;99.90;;;;;;5000093;28;20030;-89
2021/07/11 09:04:48;;;;;;;19.95;10.20;;;23.10;99.90;;;;;;5001633;28;20022;-90
2021/07/11 09:07:22;;;;;;;17.10;9.50;;;21.60;99.90;;;;;;5002505;28;20483;-90
2021/07/11 09:09:56;;;;;;;17.48;8.55;;;21.90;99.90;;;;;;5009130;28;20364;-90
2021/07/11 09:12:23;;;;;;;13.57;7.75;;;24.70;99.90;;;;;;4999227;28;20109;-89
2021/07/11 09:14:50;;;;;;;15.30;7.63;;;23.50;99.90;;;;;;4998818;28;20133;-89
2021/07/11 09:17:16;;;;;;;15.02;7.40;;;24.50;99.90;;;;;;5016300;28;20026;-90
2021/07/11 09:19:44;;;;;;;11.88;5.80;;;21.50;99.90;;;;;;4998752;28;20038;-90
2021/07/11 09:22:14;;;;;;;15.30;7.17;;;21.70;99.90;;;;;;5003251;28;20064;-90
2021/07/11 09:24:56;;;;;;;20.20;9.13;;;21.70;99.90;;;;;;5032394;28;20026;-90
2021/07/11 09:27:27;;;;;;;42.22;15.77;;;20.90;99.90;;;;;;4997969;28;20535;-90
2021/07/11 09:30:17;;;;;;;14.82;7.20;;;22.50;99.90;;;;;;4998159;28;20061;-90
2021/07/11 09:32:44;;;;;;;14.13;6.25;;;22.20;99.90;;;;;;5015171;28;20478;-90
2021/07/11 09:35:12;;;;;;;57.80;21.35;;;22.30;99.90;;;;;;5036359;28;20044;-90
2021/07/11 09:37:41;;;;;;;16.10;7.95;;;22.40;99.90;;;;;;5005946;28;20033;-89
2021/07/11 09:40:11;;;;;;;16.52;7.82;;;22.60;99.90;;;;;;4998591;28;20050;-90
2021/07/11 09:42:42;;;;;;;79.78;28.50;;;22.90;99.90;;;;;;5015633;28;20040;-89
2021/07/11 09:45:24;;;;;;;21.50;9.95;;;25.30;99.90;;;;;;5035492;28;20022;-90
2021/07/11 09:47:52;;;;;;;20.83;9.85;;;23.50;99.90;;;;;;5017303;28;20083;-89
2021/07/11 09:50:21;;;;;;;34.00;16.47;;;23.40;99.90;;;;;;5035160;28;20118;-90
2021/07/11 09:52:49;;;;;;;16.15;7.50;;;23.90;99.90;;;;;;4998412;28;20053;-90
2021/07/11 09:55:20;;;;;;;;;;;26.00;99.90;;;;;;4998340;28;20061;-90
2021/07/11 09:57:51;;;;;;;10.77;5.78;;;23.70;99.90;;;;;;5032681;28;19916;-90
2021/07/11 10:00:31;;;;;;;10.30;6.35;;;23.80;99.90;;;;;;5017999;28;20063;-89
2021/07/11 10:03:04;;;;;;;14.55;7.68;;;24.10;99.90;;;;;;5017996;28;20544;-90
2021/07/11 10:05:31;;;;;;;14.20;6.55;;;23.80;99.90;;;;;;5017458;28;20475;-89
2021/07/11 10:07:58;;;;;;;11.82;6.65;;;23.80;99.90;;;;;;5008731;28;20014;-90
2021/07/11 10:10:29;;;;;;;13.32;7.30;;;24.30;99.90;;;;;;4998048;28;20045;-89
2021/07/11 10:12:56;;;;;;;9.88;5.45;;;24.70;99.90;;;;;;4998324;28;20022;-89
2021/07/11 10:15:25;;;;;;;14.60;7.20;;;26.00;99.90;;;;;;5016207;28;20032;-89
2021/07/11 10:17:57;;;;;;;12.07;7.00;;;25.20;99.90;;;;;;4998041;28;20029;-90
2021/07/11 10:20:30;;;;;;;12.27;6.78;;;27.40;99.90;;;;;;4997535;28;20030;-89
2021/07/11 10:22:55;;;;;;;11.73;6.07;;;25.70;99.60;;;;;;4996906;28;20017;-89
2021/07/11 10:25:23;;;;;;;12.13;6.18;;;25.70;99.90;;;;;;5012140;28;20044;-89
2021/07/11 10:28:13;;;;;;;10.48;6.15;;;28.60;99.90;;;;;;5017170;28;20026;-90
2021/07/11 10:30:44;;;;;;;11.90;6.22;;;25.70;99.90;;;;;;5016603;28;20466;-89
2021/07/11 10:33:14;;;;;;;12.48;7.40;;;25.20;98.70;;;;;;5035038;28;20045;-89
2021/07/11 10:35:56;;;;;;;11.55;6.15;;;24.70;99.90;;;;;;5016408;28;20033;-89
2021/07/11 10:38:44;;;;;;;11.32;6.72;;;24.60;99.90;;;;;;5033986;28;20025;-89
2021/07/11 10:41:14;;;;;;;13.05;6.60;;;21.30;99.90;;;;;;5004677;28;20025;-89
2021/07/11 10:43:42;;;;;;;12.93;6.38;;;24.20;99.90;;;;;;4996220;28;20430;-90
2021/07/11 10:46:08;;;;;;;12.15;6.43;;;23.60;99.90;;;;;;4996930;28;20033;-89
2021/07/11 10:48:34;;;;;;;15.65;7.15;;;23.20;99.90;;;;;;4997076;28;20043;-90
2021/07/11 10:51:00;;;;;;;10.77;6.20;;;25.60;99.90;;;;;;4998069;28;20041;-89
2021/07/11 10:53:36;;;;;;;14.60;6.78;;;24.20;99.90;;;;;;4997118;28;20456;-89
2021/07/11 10:56:04;;;;;;;13.98;7.53;;;26.10;99.90;;;;;;4998046;28;20057;-89
2021/07/11 10:58:46;;;;;;;12.80;6.75;;;22.70;99.90;;;;;;4998810;28;20033;-88
2021/07/11 11:01:38;;;;;;;12.68;6.65;;;22.70;99.90;;;;;;4997860;28;20083;-88
2021/07/11 11:04:03;;;;;;;12.13;6.30;;;22.90;99.90;;;;;;4998989;28;20100;-87
2021/07/11 11:06:39;;;;;;;10.30;5.63;;;22.80;99.90;;;;;;5014119;28;20025;-86
2021/07/11 11:09:08;;;;;;;11.77;5.88;;;25.90;99.90;;;;;;5036013;28;20487;-86
2021/07/11 11:11:54;;;;;;;9.27;5.28;;;24.00;99.90;;;;;;5008909;28;20018;-87
2021/07/11 11:14:29;;;;;;;9.32;5.47;;;22.90;99.90;;;;;;4997330;28;20029;-87
2021/07/11 11:16:55;;;;;;;10.90;5.65;;;23.30;99.90;;;;;;5017595;28;20049;-87
2021/07/11 11:19:34;;;;;;;11.50;6.80;;;23.20;99.90;;;;;;5017921;28;20098;-88
2021/07/11 11:22:01;;;;;;;12.05;5.95;;;23.60;99.90;;;;;;5018008;28;20017;-87
2021/07/11 11:24:27;;;;;;;9.88;5.43;;;23.60;99.90;;;;;;5017360;28;20028;-87
2021/07/11 11:30:25;;;;;;;10.57;5.63;;;24.00;99.90;;;;;;4971531;28;20403;-89
2021/07/11 11:32:54;;;;;;;11.95;6.43;;;24.20;99.90;;;;;;5034527;28;20071;-87
2021/07/11 11:35:28;;;;;;;12.20;6.00;;;23.50;99.90;;;;;;5021315;28;20394;-87
2021/07/11 11:37:58;;;;;;;9.50;5.78;;;24.50;99.90;;;;;;5019933;28;20034;-87
2021/07/11 11:40:26;;;;;;;9.70;5.60;;;25.10;99.90;;;;;;5018888;28;20022;-87
2021/07/11 11:42:54;;;;;;;;;;;25.30;99.50;;;;;;5036445;28;20025;-87
2021/07/11 11:45:26;;;;;;;15.00;5.80;;;26.80;98.90;;;;;;5034935;23;19921;-77
2021/07/11 11:48:06;;;;;;;7.85;4.43;;;26.20;93.30;;;;;;5031645;28;20386;-76
2021/07/11 11:50:33;;;;;;;9.32;5.00;;;26.40;95.30;;;;;;5006966;28;20027;-75
2021/07/11 11:53:07;;;;;;;10.15;5.05;;;26.70;92.50;;;;;;4991365;23;20547;-73
2021/07/11 11:55:37;;;;;;;9.57;4.75;;;26.50;90.70;;;;;;5011563;28;20113;-73
2021/07/11 11:58:05;;;;;;;8.27;4.28;;;26.40;87.50;;;;;;4979242;28;20538;-74
2021/07/11 12:00:31;;;;;;;7.22;3.90;;;26.00;89.60;;;;;;4980286;28;20018;-76
2021/07/11 12:03:05;;;;;;;8.65;5.05;;;26.10;90.30;;;;;;4996699;28;20088;-77
2021/07/11 12:05:34;;;;;;;9.82;5.20;;;26.10;92.00;;;;;;5042764;23;20041;-73
2021/07/11 12:08:00;;;;;;;9.23;4.53;;;26.60;90.20;;;;;;5018114;28;20048;-73
2021/07/11 12:10:30;;;;;;;8.70;4.15;;;26.60;89.30;;;;;;5033062;28;20509;-74
2021/07/11 12:12:58;;;;;;;10.02;4.80;;;26.90;89.60;;;;;;5016142;28;20018;-75
2021/07/11 12:15:36;;;;;;;7.95;4.30;;;27.40;87.30;;;;;;5000219;28;20036;-75
2021/07/11 12:18:06;;;;;;;10.48;5.05;;;27.30;83.90;;;;;;5035785;28;20030;-73
2021/07/11 12:20:33;;;;;;;7.85;4.10;;;27.00;81.20;;;;;;5016181;28;20029;-75
2021/07/11 12:23:09;;;;;;;7.63;3.75;;;26.40;83.90;;;;;;5035842;28;20026;-74
2021/07/11 12:25:38;;;;;;;7.78;4.05;;;26.00;90.30;;;;;;5014375;28;20029;-73
2021/07/11 12:28:04;;;;;;;;;;;25.60;89.90;;;;;;5016832;28;20022;-74
2021/07/11 12:30:34;;;;;;;6.55;3.60;;;25.50;91.30;;;;;;5016092;28;19906;-73
2021/07/11 12:33:00;;;;;;;8.88;4.85;;;25.50;93.20;;;;;;4998281;28;20029;-73
2021/07/11 12:35:26;;;;;;;8.25;4.38;;;25.50;91.20;;;;;;5015714;28;20030;-73
2021/07/11 12:37:58;;;;;;;7.20;4.53;;;25.50;91.60;;;;;;5015695;28;20386;-73
2021/07/11 12:40:27;;;;;;;10.00;4.47;;;25.50;93.50;;;;;;4998755;28;20029;-74
2021/07/11 12:43:08;;;;;;;;;;;25.50;92.00;;;;;;5017368;28;20403;-74
2021/07/11 12:45:37;;;;;;;9.35;5.20;;;25.50;93.50;;;;;;5016024;28;19909;-74
2021/07/11 12:48:03;;;;;;;8.60;4.93;;;25.80;91.80;;;;;;5015462;28;20526;-76
2021/07/11 12:50:44;;;;;;;8.07;4.25;;;25.90;90.20;;;;;;5015489;28;20493;-74
2021/07/11 12:53:10;;;;;;;7.55;4.20;;;25.90;90.10;;;;;;5016924;28;20037;-77